Time;durP1;ratioP1;P1;durP2;ratioP2;P2;SDS_P1;SDS_P2;PMS_P1;PMS_P2;Temp;Humidity;BMP_temperature;BMP_pressure;BME280_temperature;BME280_humidity;BME280_pressure;Samples;Min_cycle;Max_cycle;Signal;HPM_P1;HPM_P2
2022/07/05 00:01:47;;;;;;;;;;;;;;;14.60;100.00;101082.97;4918899;29;20433;-81
2022/07/05 00:04:12;;;;;;;;;;;;;;;14.67;100.00;101091.91;4915421;29;19922;-82
2022/07/05 00:07:17;;;;;;;;;;;;;;;14.66;100.00;101092.09;4930719;29;20298;-82
2022/07/05 00:09:22;;;;;;;;;;;;;;;14.69;100.00;101088.97;4930314;29;19927;-82
2022/07/05 00:11:47;;;;;;;;;;;;;;;14.74;100.00;101089.97;4914961;29;19930;-81
2022/07/05 00:14:14;;;;;;;;;;;;;;;14.79;100.00;101090.13;4930191;29;20336;-82
2022/07/05 00:16:39;;;;;;;;;;;;;;;14.78;100.00;101096.59;4900901;29;19922;-83
2022/07/05 00:19:04;;;;;;;;;;;;;;;14.80;100.00;101099.94;4915223;29;19919;-82
2022/07/05 00:21:30;;;;;;;;;;;;;;;14.79;100.00;101095.53;4930898;29;19935;-81
2022/07/05 00:23:55;;;;;;;;;;;;;;;14.48;100.00;101038.66;4931582;29;19923;-82
2022/07/05 00:26:20;;;;;;;;;;;;;;;14.83;100.00;101093.22;4918899;29;19974;-82
2022/07/05 00:28:45;;;;;;;;;;;;;;;14.83;100.00;101084.25;4920671;29;19919;-82
2022/07/05 00:31:10;;;;;;;;;;;;;;;14.83;100.00;101092.38;4929685;29;20283;-82
2022/07/05 00:33:36;;;;;;;;;;;;;;;14.82;100.00;101086.16;4933054;29;19939;-82
2022/07/05 00:36:01;;;;;;;;;;;;;;;14.86;100.00;101087.34;4902006;29;19926;-83
2022/07/05 00:38:26;;;;;;;;;;;;;;;14.90;100.00;101090.44;4935294;29;19999;-82
2022/07/05 00:40:51;;;;;;;;;;;;;;;14.95;100.00;101096.88;4913880;29;19927;-82
2022/07/05 00:43:17;;;;;;;;;;;;;;;14.92;100.00;101102.75;4932682;29;19926;-82
2022/07/05 00:45:42;;;;;;;;;;;;;;;14.91;100.00;101095.66;4915071;29;19926;-82
2022/07/05 00:48:07;;;;;;;;;;;;;;;14.89;100.00;101094.22;4899776;29;19919;-82
2022/07/05 00:50:33;;;;;;;;;;;;;;;14.87;100.00;101099.88;4932307;29;19938;-81
2022/07/05 00:52:59;;;;;;;;;;;;;;;14.83;100.00;101105.94;4927324;29;19919;-81
2022/07/05 00:55:24;;;;;;;;;;;;;;;14.80;100.00;101101.78;4928091;29;19919;-82
2022/07/05 00:57:50;;;;;;;;;;;;;;;14.82;100.00;101105.13;4928992;29;19950;-82
2022/07/05 01:00:15;;;;;;;;;;;;;;;14.79;100.00;101098.25;4923369;29;19969;-82
2022/07/05 01:02:41;;;;;;;;;;;;;;;14.80;100.00;101102.63;4928607;29;19924;-82
2022/07/05 01:05:06;;;;;;;;;;;;;;;14.73;100.00;101104.53;4913403;29;19915;-82
2022/07/05 01:07:31;;;;;;;;;;;;;;;14.67;100.00;101093.75;4910778;29;19923;-81
2022/07/05 01:09:57;;;;;;;;;;;;;;;14.64;100.00;101110.47;4926098;29;19922;-82
2022/07/05 01:12:22;;;;;;;;;;;;;;;14.55;100.00;101112.59;4929702;29;19920;-82
2022/07/05 01:14:48;;;;;;;;;;;;;;;14.55;100.00;101096.34;4926974;29;20034;-81
2022/07/05 01:17:13;;;;;;;;;;;;;;;14.56;100.00;101098.00;4927280;29;19919;-81
2022/07/05 01:19:39;;;;;;;;;;;;;;;14.55;100.00;101102.59;4911795;29;19929;-81
2022/07/05 01:22:07;;;;;;;;;;;;;;;14.57;100.00;101102.38;4927061;29;19923;-82
2022/07/05 01:24:34;;;;;;;;;;;;;;;14.64;100.00;101105.88;4928691;29;19922;-81
2022/07/05 01:26:59;;;;;;;;;;;;;;;14.68;100.00;101109.81;4926873;29;19954;-82
2022/07/05 01:29:24;;;;;;;;;;;;;;;14.67;100.00;101105.44;4929681;29;19946;-82
2022/07/05 01:31:50;;;;;;;;;;;;;;;14.63;100.00;101101.47;4912016;29;20353;-82
2022/07/05 01:34:15;;;;;;;;;;;;;;;14.61;100.00;101105.50;4909090;29;19919;-81
2022/07/05 01:36:40;;;;;;;;;;;;;;;14.57;100.00;101097.78;4934238;29;19927;-82
2022/07/05 01:39:06;;;;;;;;;;;;;;;14.56;100.00;101104.25;4919333;29;19967;-81
2022/07/05 01:41:31;;;;;;;;;;;;;;;14.52;100.00;101116.56;4905678;29;19951;-81
2022/07/05 01:43:57;;;;;;;;;;;;;;;14.51;100.00;101108.66;4924559;29;19915;-81
2022/07/05 01:46:23;;;;;;;;;;;;;;;14.50;100.00;101118.69;4921548;29;19946;-81
2022/07/05 01:48:50;;;;;;;;;;;;;;;14.47;100.00;101116.38;4903123;29;19923;-81
2022/07/05 01:51:18;;;;;;;;;;;;;;;14.47;100.00;101115.50;4919954;29;19966;-81
2022/07/05 01:53:44;;;;;;;;;;;;;;;14.44;100.00;101114.09;4904415;29;19916;-81
2022/07/05 01:56:09;;;;;;;;;;;;;;;14.45;100.00;101123.03;4903768;29;19919;-81
2022/07/05 01:58:35;;;;;;;;;;;;;;;14.40;100.00;101114.72;4899692;29;19923;-81
2022/07/05 02:01:00;;;;;;;;;;;;;;;14.37;100.00;101110.59;4919863;29;19919;-81
2022/07/05 02:03:26;;;;;;;;;;;;;;;14.42;100.00;101118.06;4887257;29;19926;-81
2022/07/05 02:05:52;;;;;;;;;;;;;;;14.39;100.00;101108.47;4902964;29;20400;-80
2022/07/05 02:08:18;;;;;;;;;;;;;;;14.46;100.00;101113.84;4920066;29;19922;-81
2022/07/05 02:10:43;;;;;;;;;;;;;;;14.48;100.00;101114.47;4902743;29;19915;-81
2022/07/05 02:13:09;;;;;;;;;;;;;;;14.49;100.00;101103.41;4920675;29;19919;-81
2022/07/05 02:15:35;;;;;;;;;;;;;;;14.51;100.00;101106.78;4901750;29;20404;-81
2022/07/05 02:18:01;;;;;;;;;;;;;;;14.54;100.00;101100.13;4901716;29;19942;-81
2022/07/05 02:20:26;;;;;;;;;;;;;;;14.59;100.00;101104.88;4902516;29;19926;-81
2022/07/05 02:22:52;;;;;;;;;;;;;;;14.62;100.00;101101.72;4900872;29;19923;-81
2022/07/05 02:25:17;;;;;;;;;;;;;;;14.70;100.00;101105.00;4922700;29;19935;-81
2022/07/05 02:27:42;;;;;;;;;;;;;;;14.73;100.00;101103.72;4919077;29;20002;-81
2022/07/05 02:30:08;;;;;;;;;;;;;;;14.75;100.00;101107.03;4919185;29;20383;-81
2022/07/05 02:32:33;;;;;;;;;;;;;;;14.75;100.00;101109.75;4919800;29;19965;-81
2022/07/05 02:34:58;;;;;;;;;;;;;;;14.73;100.00;101114.56;4903348;29;19923;-81
2022/07/05 02:37:23;;;;;;;;;;;;;;;14.69;100.00;101102.50;4888083;29;19969;-81
2022/07/05 02:39:48;;;;;;;;;;;;;;;14.72;100.00;101107.47;4919024;29;19919;-81
2022/07/05 02:42:14;;;;;;;;;;;;;;;14.71;100.00;101109.38;4887628;29;19923;-81
2022/07/05 02:44:39;;;;;;;;;;;;;;;14.72;100.00;101108.31;4915023;29;19923;-81
2022/07/05 02:47:04;;;;;;;;;;;;;;;14.77;100.00;101104.97;4918839;29;19924;-81
2022/07/05 02:49:29;;;;;;;;;;;;;;;14.79;100.00;101111.78;4920377;29;20390;-81
2022/07/05 02:51:54;;;;;;;;;;;;;;;14.82;100.00;101112.41;4919110;29;19919;-81
2022/07/05 02:54:20;;;;;;;;;;;;;;;14.82;100.00;101112.41;4917698;29;19920;-82
2022/07/05 02:56:45;;;;;;;;;;;;;;;14.85;100.00;101115.50;4919532;29;19927;-81
2022/07/05 02:59:10;;;;;;;;;;;;;;;14.90;100.00;101120.25;4918321;29;19919;-81
2022/07/05 03:01:35;;;;;;;;;;;;;;;14.95;100.00;101120.44;4917941;29;19923;-81
2022/07/05 03:04:01;;;;;;;;;;;;;;;14.99;100.00;101113.53;4906291;29;19975;-81
2022/07/05 03:06:26;;;;;;;;;;;;;;;15.00;100.00;101128.75;4907541;29;19923;-79
2022/07/05 03:08:51;;;;;;;;;;;;;;;15.02;100.00;101119.34;4924482;29;20285;-79
2022/07/05 03:11:17;;;;;;;;;;;;;;;15.06;100.00;101121.59;4923459;29;19971;-79
2022/07/05 03:13:42;;;;;;;;;;;;;;;15.04;100.00;101116.41;4895858;29;19973;-79
2022/07/05 03:16:07;;;;;;;;;;;;;;;15.05;100.00;101115.34;4907592;29;19919;-79
2022/07/05 03:18:32;;;;;;;;;;;;;;;15.04;100.00;101116.41;4923999;29;20393;-78
2022/07/05 03:20:59;;;;;;;;;;;;;;;15.05;100.00;101120.78;4907515;29;20269;-79
2022/07/05 03:23:24;;;;;;;;;;;;;;;15.05;100.00;101118.06;4923745;29;19919;-81
2022/07/05 03:25:49;;;;;;;;;;;;;;;15.08;100.00;101123.03;4920752;29;19966;-82
2022/07/05 03:28:15;;;;;;;;;;;;;;;15.11;100.00;101127.19;4907700;29;19915;-81
2022/07/05 03:30:40;;;;;;;;;;;;;;;15.15;100.00;101128.41;4923083;29;19939;-81
2022/07/05 03:33:05;;;;;;;;;;;;;;;15.21;100.00;101130.25;4922860;29;19990;-81
2022/07/05 03:35:30;;;;;;;;;;;;;;;15.28;100.00;101126.41;4909010;29;19923;-82
2022/07/05 03:37:55;;;;;;;;;;;;;;;15.31;100.00;101127.03;4908120;29;20017;-81
2022/07/05 03:40:21;;;;;;;;;;;;;;;15.33;100.00;101123.06;4922920;29;19919;-81
2022/07/05 03:42:46;;;;;;;;;;;;;;;15.36;100.00;101128.00;4924925;29;19952;-81
2022/07/05 03:45:11;;;;;;;;;;;;;;;15.37;100.00;101131.56;4921678;29;19923;-81
2022/07/05 03:47:37;;;;;;;;;;;;;;;15.41;100.00;101121.94;4906764;29;19947;-81
2022/07/05 03:50:03;;;;;;;;;;;;;;;15.49;100.00;101118.91;4906101;29;19951;-81
2022/07/05 03:52:28;;;;;;;;;;;;;;;15.46;100.00;101131.06;4916080;29;19938;-82
2022/07/05 03:54:53;;;;;;;;;;;;;;;15.43;100.00;101131.50;4930111;29;19926;-81
2022/07/05 03:57:19;;;;;;;;;;;;;;;15.42;100.00;101127.13;4905199;29;19973;-81
2022/07/05 03:59:44;;;;;;;;;;;;;;;15.54;100.00;101131.81;4920247;29;19915;-81
2022/07/05 04:02:09;;;;;;;;;;;;;;;15.88;100.00;101133.97;4922621;29;20388;-81
2022/07/05 04:04:35;;;;;;;;;;;;;;;15.87;100.00;101132.31;4921191;29;19920;-82
2022/07/05 04:07:00;;;;;;;;;;;;;;;16.35;100.00;101133.41;4907407;29;19923;-79
2022/07/05 04:09:25;;;;;;;;;;;;;;;16.07;100.00;101134.81;4906573;29;19923;-79
2022/07/05 04:11:50;;;;;;;;;;;;;;;15.93;100.00;101126.00;4908393;29;19915;-80
2022/07/05 04:14:15;;;;;;;;;;;;;;;15.88;100.00;101122.28;4922493;29;20014;-79
2022/07/05 04:16:41;;;;;;;;;;;;;;;15.90;100.00;101121.03;4924939;29;19919;-80
2022/07/05 04:19:06;;;;;;;;;;;;;;;16.17;100.00;101121.50;4905614;29;19930;-79
2022/07/05 04:21:31;;;;;;;;;;;;;;;16.22;100.00;101126.25;4904222;29;20365;-79
2022/07/05 04:23:56;;;;;;;;;;;;;;;17.64;100.00;101125.50;4925429;29;19919;-83
2022/07/05 04:26:23;;;;;;;;;;;;;;;18.87;96.49;101125.25;4935991;29;19999;-82
2022/07/05 04:28:48;;;;;;;;;;;;;;;19.64;91.55;101132.78;4934374;29;19923;-79
2022/07/05 04:31:14;;;;;;;;;;;;;;;19.62;90.56;101141.19;4899914;29;19946;-80
2022/07/05 04:33:40;;;;;;;;;;;;;;;20.19;87.79;101137.31;4917261;29;19920;-83
2022/07/05 04:36:05;;;;;;;;;;;;;;;20.12;86.31;101136.69;4918082;29;19995;-83
2022/07/05 04:38:30;;;;;;;;;;;;;;;20.31;85.19;101142.66;4907683;29;19923;-80
2022/07/05 04:40:56;;;;;;;;;;;;;;;19.87;84.67;101148.13;4922715;29;20004;-82
2022/07/05 04:43:21;;;;;;;;;;;;;;;19.57;86.25;101140.28;4935935;29;19921;-79
2022/07/05 04:45:46;;;;;;;;;;;;;;;18.38;94.66;101150.25;4926700;29;20395;-81
2022/07/05 04:48:13;;;;;;;;;;;;;;;18.08;97.03;101142.28;4935746;29;19919;-83
2022/07/05 04:50:38;;;;;;;;;;;;;;;18.14;98.62;101149.47;4924105;29;19911;-82
2022/07/05 04:53:04;;;;;;;;;;;;;;;18.33;95.87;101136.50;4926804;29;19994;-82
2022/07/05 04:55:30;;;;;;;;;;;;;;;17.76;99.09;101150.84;4915666;29;19915;-83
2022/07/05 04:57:55;;;;;;;;;;;;;;;17.47;100.00;101147.16;4925338;29;19923;-82
2022/07/05 05:08:01;;;;;;;;;;;;;;;17.56;99.26;101155.81;4939420;29;19912;-83
2022/07/05 05:10:26;;;;;;;;;;;;;;;17.49;100.00;101157.81;5013618;23;19910;-80
2022/07/05 05:12:51;;;;;;;;;;;;;;;17.38;100.00;101156.72;5472397;23;20291;-80
2022/07/05 05:38:59;;;;;;;;;;;;;;;18.30;95.34;101164.22;5289635;23;20201;-83
2022/07/05 05:49:09;;;;;;;;;;;;;;;18.97;91.27;101161.72;5821892;23;19919;-82
2022/07/05 05:51:35;;;;;;;;;;;;;;;18.99;91.11;101169.66;4959795;28;20017;-82
2022/07/05 05:54:00;;;;;;;;;;;;;;;19.20;89.90;101171.66;4939358;29;19925;-83
2022/07/05 05:56:26;;;;;;;;;;;;;;;18.93;91.12;101173.34;4954543;29;19933;-81
2022/07/05 05:58:52;;;;;;;;;;;;;;;18.55;92.45;101175.66;4955161;29;19914;-82
2022/07/05 06:01:17;;;;;;;;;;;;;;;18.20;93.09;101169.47;4942711;29;19914;-82
2022/07/05 06:03:43;;;;;;;;;;;;;;;17.98;94.33;101174.72;4956960;29;19899;-82
2022/07/05 06:06:08;;;;;;;;;;;;;;;17.95;95.68;101173.31;4944073;29;19914;-83
2022/07/05 06:26:39;;;;;;;;;;;;;;;17.61;99.07;101172.25;5228238;23;19928;-84
2022/07/05 06:29:07;;;;;;;;;;;;;;;17.53;99.76;101178.06;4921591;29;19962;-83
2022/07/05 06:31:33;;;;;;;;;;;;;;;17.36;100.00;101177.91;4889419;29;19930;-83
2022/07/05 06:33:58;;;;;;;;;;;;;;;17.22;100.00;101184.63;4899095;29;19908;-81
2022/07/05 06:36:23;;;;;;;;;;;;;;;17.09;100.00;101188.41;4928781;29;19962;-82
2022/07/05 06:38:58;;;;;;;;;;;;;;;17.01;100.00;101191.44;4918510;29;19923;-82
2022/07/05 06:41:24;;;;;;;;;;;;;;;16.99;100.00;101185.44;4977678;23;19933;-83
2022/07/05 06:43:49;;;;;;;;;;;;;;;16.90;100.00;101191.19;4919756;29;19919;-82
2022/07/05 06:46:14;;;;;;;;;;;;;;;16.81;100.00;101195.28;4904818;29;19935;-81
2022/07/05 06:48:40;;;;;;;;;;;;;;;16.81;100.00;101192.56;4921942;29;19926;-81
2022/07/05 06:51:06;;;;;;;;;;;;;;;16.78;100.00;101193.03;4916102;29;19900;-82
2022/07/05 06:53:31;;;;;;;;;;;;;;;16.76;100.00;101188.91;4898480;29;19927;-82
2022/07/05 06:55:56;;;;;;;;;;;;;;;16.76;100.00;101195.16;4907052;29;19931;-83
2022/07/05 06:58:22;;;;;;;;;;;;;;;16.80;100.00;101190.09;5706524;23;19919;-82
2022/07/05 07:00:47;;;;;;;;;;;;;;;16.79;100.00;101194.69;4962060;29;19923;-82
2022/07/05 07:03:13;;;;;;;;;;;;;;;16.79;100.00;101193.88;4962696;29;19942;-82
2022/07/05 07:05:40;;;;;;;;;;;;;;;16.80;100.00;101196.34;4944405;29;19931;-82
2022/07/05 07:10:49;;;;;;;;;;;;;;;16.71;100.00;101194.16;4958036;28;19973;-82
2022/07/05 07:13:14;;;;;;;;;;;;;;;16.70;100.00;101192.50;4946107;29;19931;-82
2022/07/05 07:15:40;;;;;;;;;;;;;;;16.70;100.00;101193.31;4946960;29;19907;-82
2022/07/05 07:18:06;;;;;;;;;;;;;;;16.74;100.00;101190.97;4955348;28;19911;-82
2022/07/05 07:20:32;;;;;;;;;;;;;;;16.72;100.00;101191.22;4959061;29;19946;-81
2022/07/05 07:22:58;;;;;;;;;;;;;;;16.85;100.00;101199.22;4962562;29;19934;-82
2022/07/05 07:25:23;;;;;;;;;;;;;;;16.90;100.00;101195.78;4954377;29;19982;-82
2022/07/05 07:27:50;;;;;;;;;;;;;;;17.01;100.00;101199.59;4945509;29;19915;-82
2022/07/05 07:30:16;;;;;;;;;;;;;;;17.14;100.00;101202.13;4963047;28;19907;-82
2022/07/05 07:32:42;;;;;;;;;;;;;;;17.28;100.00;101198.13;4945046;28;19907;-81
2022/07/05 07:35:08;;;;;;;;;;;;;;;17.37;100.00;101207.59;4962827;28;19946;-81
2022/07/05 07:37:34;;;;;;;;;;;;;;;17.52;100.00;101200.88;4935540;29;19926;-82
2022/07/05 07:40:00;;;;;;;;;;;;;;;17.72;98.79;101209.53;4927580;29;19951;-83
2022/07/05 07:42:26;;;;;;;;;;;;;;;17.98;97.44;101212.84;4927727;29;19919;-82
2022/07/05 07:44:51;;;;;;;;;;;;;;;18.09;97.18;101206.56;4958798;28;19935;-82
2022/07/05 07:47:17;;;;;;;;;;;;;;;18.27;96.16;101202.84;4943781;29;19912;-82
2022/07/05 07:49:42;;;;;;;;;;;;;;;18.12;94.62;101205.28;4958131;28;19954;-82
2022/07/05 07:52:08;;;;;;;;;;;;;;;18.26;94.68;101204.75;4956758;29;19923;-81
2022/07/05 07:54:33;;;;;;;;;;;;;;;18.34;94.40;101206.25;4955609;28;19965;-82
2022/07/05 07:57:01;;;;;;;;;;;;;;;18.41;94.46;101204.25;4963015;29;19992;-81
2022/07/05 07:59:26;;;;;;;;;;;;;;;18.83;93.58;101203.16;4962664;29;19974;-82
2022/07/05 08:01:52;;;;;;;;;;;;;;;18.82;92.13;101201.53;4945367;29;19907;-81
2022/07/05 08:04:17;;;;;;;;;;;;;;;18.61;92.13;101214.75;4945805;29;19907;-82
2022/07/05 08:09:18;;;;;;;;;;;;;;;18.35;92.70;101207.94;5684719;23;19910;-82
2022/07/05 08:11:44;;;;;;;;;;;;;;;18.28;93.83;101209.97;4946747;29;19966;-83
2022/07/05 08:14:10;;;;;;;;;;;;;;;18.11;94.12;101204.41;4962271;29;19930;-82
2022/07/05 08:16:35;;;;;;;;;;;;;;;18.04;93.46;101209.16;4946424;28;19914;-82
2022/07/05 08:21:47;;;;;;;;;;;;;;;18.41;91.59;101206.97;4962816;28;19991;-83
2022/07/05 08:24:12;;;;;;;;;;;;;;;18.45;90.05;101212.78;4946312;29;19993;-81
2022/07/05 08:26:38;;;;;;;;;;;;;;;18.45;89.88;101210.88;4986635;23;19934;-82
2022/07/05 08:29:05;;;;;;;;;;;;;;;18.54;89.99;101220.34;4965161;29;19930;-83
2022/07/05 08:31:33;;;;;;;;;;;;;;;19.16;88.32;101221.50;4968777;28;19923;-81
2022/07/05 08:33:59;;;;;;;;;;;;;;;19.27;86.38;101215.16;4945398;29;19938;-82
2022/07/05 08:36:24;;;;;;;;;;;;;;;19.10;85.47;101217.84;4978032;28;19907;-83
2022/07/05 08:38:50;;;;;;;;;;;;;;;18.98;86.88;101225.28;4945979;29;19981;-83
2022/07/05 08:41:18;;;;;;;;;;;;;;;18.80;87.96;101234.47;4961857;29;19907;-81
2022/07/05 08:43:44;;;;;;;;;;;;;;;18.72;89.53;101238.41;4973522;23;19919;-81
2022/07/05 08:48:48;;;;;;;;;;;;;;;18.60;92.40;101245.75;5890263;23;19929;-81
2022/07/05 08:51:21;;;;;;;;;;;;;;;18.45;90.06;101243.56;4926664;29;19907;-81
2022/07/05 08:53:46;;;;;;;;;;;;;;;18.36;86.84;101246.91;4942524;28;19926;-82
2022/07/05 08:56:13;;;;;;;;;;;;;;;18.25;86.13;101252.13;4922235;29;19907;-82
2022/07/05 08:58:49;;;;;;;;;;;;;;;;;;;;;
2022/07/05 09:01:16;;;;;;;;;;;;;;;18.42;89.14;101245.94;5950754;23;19948;-82
2022/07/05 09:03:49;;;;;;;;;;;;;;;18.40;90.62;101248.06;5134179;23;21206;-81
2022/07/05 09:08:51;;;;;;;;;;;;;;;18.95;88.20;101251.13;5587860;23;19934;-83
2022/07/05 09:11:18;;;;;;;;;;;;;;;19.25;87.98;101250.03;4945787;28;19906;-83
2022/07/05 09:21:31;;;;;;;;;;;;;;;18.88;88.00;101246.91;5357148;23;19997;-82
2022/07/05 09:24:03;;;;;;;;;;;;;;;18.96;85.54;101251.97;4960392;28;20315;-82
2022/07/05 09:26:35;;;;;;;;;;;;;;;19.11;85.14;101245.97;4964057;28;19982;-83
2022/07/05 09:29:02;;;;;;;;;;;;;;;18.62;87.84;101268.16;4961076;28;19929;-82
2022/07/05 09:31:29;;;;;;;;;;;;;;;17.87;96.05;101276.31;4947085;29;19926;-80
2022/07/05 09:33:56;;;;;;;;;;;;;;;17.34;100.00;101265.19;4971218;29;19981;-80
2022/07/05 09:36:22;;;;;;;;;;;;;;;17.03;100.00;101260.03;4955179;29;19914;-80
2022/07/05 09:38:53;;;;;;;;;;;;;;;17.21;100.00;101264.56;4971523;29;19914;-81
2022/07/05 09:41:18;;;;;;;;;;;;;;;17.36;100.00;101267.69;4943903;29;19910;-80
2022/07/05 09:43:44;;;;;;;;;;;;;;;17.52;100.00;101269.72;4941253;29;19993;-82
2022/07/05 09:46:09;;;;;;;;;;;;;;;17.54;100.00;101261.31;4952813;29;19986;-82
2022/07/05 09:48:34;;;;;;;;;;;;;;;17.67;100.00;101263.00;4962352;28;19910;-82
2022/07/05 09:51:13;;;;;;;;;;;;;;;17.76;100.00;101267.91;4960946;29;19930;-81
2022/07/05 09:53:53;;;;;;;;;;;;;;;17.69;100.00;101269.88;4978429;29;19918;-81
2022/07/05 09:56:18;;;;;;;;;;;;;;;17.50;100.00;101276.47;4962545;28;19926;-81
2022/07/05 09:58:45;;;;;;;;;;;;;;;17.58;100.00;101274.25;4946126;29;19902;-82
2022/07/05 10:01:27;;;;;;;;;;;;;;;17.59;100.00;101278.63;4962118;29;19934;-81
2022/07/05 10:03:57;;;;;;;;;;;;;;;17.52;100.00;101280.63;4969413;28;19931;-81
2022/07/05 10:06:23;;;;;;;;;;;;;;;17.68;100.00;101284.56;4960262;29;19921;-82
2022/07/05 10:11:24;;;;;;;;;;;;;;;18.14;100.00;101282.94;5279649;23;19912;-81
2022/07/05 10:13:53;;;;;;;;;;;;;;;18.22;98.59;101282.56;4921874;29;19930;-82
2022/07/05 10:16:19;;;;;;;;;;;;;;;17.95;99.79;101301.28;4941703;29;19903;-82
2022/07/05 10:18:46;;;;;;;;;;;;;;;17.60;100.00;101299.31;4924927;29;19974;-81
2022/07/05 10:21:15;;;;;;;;;;;;;;;17.09;100.00;101316.19;4926246;29;19911;-81
2022/07/05 10:23:44;;;;;;;;;;;;;;;16.78;100.00;101312.59;4940990;29;19958;-81
2022/07/05 10:26:11;;;;;;;;;;;;;;;16.65;100.00;101307.28;4956184;29;19919;-81
2022/07/05 10:28:38;;;;;;;;;;;;;;;16.68;100.00;101307.66;4933042;29;19927;-81
2022/07/05 10:31:03;;;;;;;;;;;;;;;16.91;100.00;101312.44;4922205;29;19990;-81
2022/07/05 10:33:29;;;;;;;;;;;;;;;17.17;100.00;101305.00;4943910;29;20301;-81
2022/07/05 10:35:56;;;;;;;;;;;;;;;17.33;100.00;101306.22;4956680;29;19914;-82
2022/07/05 10:38:22;;;;;;;;;;;;;;;17.60;100.00;101309.38;4927040;29;19925;-82
2022/07/05 10:40:50;;;;;;;;;;;;;;;17.93;100.00;101310.75;4959607;29;19911;-82
2022/07/05 10:43:16;;;;;;;;;;;;;;;17.93;100.00;101310.75;4942886;29;19938;-82
2022/07/05 10:45:48;;;;;;;;;;;;;;;17.94;100.00;101304.25;4958963;29;19911;-81
2022/07/05 10:48:27;;;;;;;;;;;;;;;18.04;100.00;101309.94;4941864;29;19946;-81
2022/07/05 10:50:53;;;;;;;;;;;;;;;18.03;100.00;101313.72;4959432;29;19907;-81
2022/07/05 10:53:22;;;;;;;;;;;;;;;18.33;100.00;101305.41;4943489;29;19907;-82
2022/07/05 10:58:32;;;;;;;;;;;;;;;18.35;100.00;101321.53;5482638;23;19938;-82
2022/07/05 11:06:20;;;;;;;;;;;;;;;18.28;100.00;101317.03;4996767;23;19933;-81
2022/07/05 11:09:03;;;;;;;;;;;;;;;18.29;100.00;101320.59;4941623;29;19903;-82
2022/07/05 11:11:29;;;;;;;;;;;;;;;18.22;98.94;101315.25;4941006;29;19985;-81
2022/07/05 11:13:55;;;;;;;;;;;;;;;18.17;97.83;101312.41;4936756;29;19942;-81
2022/07/05 11:16:23;;;;;;;;;;;;;;;18.09;97.78;101312.78;4925426;29;19954;-82
2022/07/05 11:18:51;;;;;;;;;;;;;;;18.38;98.16;101315.63;4924380;29;19971;-82
2022/07/05 11:21:17;;;;;;;;;;;;;;;18.43;97.61;101313.81;4924473;29;20219;-82
2022/07/05 11:23:42;;;;;;;;;;;;;;;18.25;95.95;101312.06;4939403;29;19914;-81
2022/07/05 11:26:08;;;;;;;;;;;;;;;18.17;96.34;101314.31;4929458;29;19929;-82
2022/07/05 11:28:47;;;;;;;;;;;;;;;18.17;97.06;101306.97;4927267;29;19919;-81
2022/07/05 11:31:32;;;;;;;;;;;;;;;18.26;97.58;101305.53;4943073;29;19915;-82
2022/07/05 11:34:11;;;;;;;;;;;;;;;18.39;97.77;101306.38;4945287;29;19958;-83
2022/07/05 11:36:37;;;;;;;;;;;;;;;18.31;95.74;101310.31;4927482;29;19911;-83
2022/07/05 11:39:05;;;;;;;;;;;;;;;18.23;93.30;101303.28;4928611;29;19923;-82
2022/07/05 11:41:31;;;;;;;;;;;;;;;18.24;94.13;101315.84;4927783;29;19914;-82
2022/07/05 11:43:58;;;;;;;;;;;;;;;18.27;94.74;101312.63;4942953;29;19934;-82
2022/07/05 11:46:24;;;;;;;;;;;;;;;18.55;94.59;101306.47;4958927;29;19907;-82
2022/07/05 11:48:50;;;;;;;;;;;;;;;18.81;95.08;101314.34;4962380;29;19946;-82
2022/07/05 11:51:15;;;;;;;;;;;;;;;19.09;93.72;101300.75;4962237;29;19922;-83
2022/07/05 11:53:42;;;;;;;;;;;;;;;19.38;92.96;101303.47;4961517;29;19923;-82
2022/07/05 11:56:07;;;;;;;;;;;;;;;19.52;92.89;101299.34;4945902;29;19918;-82
2022/07/05 11:58:33;;;;;;;;;;;;;;;19.52;90.60;101309.44;4963513;29;19942;-81
2022/07/05 12:00:59;;;;;;;;;;;;;;;19.35;88.67;101312.16;4949327;29;19906;-82
2022/07/05 12:03:25;;;;;;;;;;;;;;;19.46;88.65;101313.97;4981689;28;19982;-82
2022/07/05 12:05:52;;;;;;;;;;;;;;;19.51;88.08;101299.63;4965489;29;19906;-82
2022/07/05 12:08:23;;;;;;;;;;;;;;;19.48;85.21;101309.13;4962190;29;19919;-82
2022/07/05 12:13:46;;;;;;;;;;;;;;;19.54;83.97;101307.31;4981123;28;19925;-82
2022/07/05 12:16:13;;;;;;;;;;;;;;;19.03;85.43;101301.72;4980530;28;19929;-83
2022/07/05 12:18:47;;;;;;;;;;;;;;;18.67;88.26;101313.78;4964574;29;19926;-82
2022/07/05 12:21:14;;;;;;;;;;;;;;;18.76;89.61;101306.91;4981085;28;19937;-82
2022/07/05 12:23:41;;;;;;;;;;;;;;;18.95;88.67;101307.56;4981159;29;19914;-82
2022/07/05 12:26:06;;;;;;;;;;;;;;;18.86;85.18;101295.38;4976472;29;19918;-82
2022/07/05 12:28:32;;;;;;;;;;;;;;;18.92;85.56;101318.97;4961127;29;19977;-80
2022/07/05 12:30:58;;;;;;;;;;;;;;;18.84;85.69;101320.19;4962790;29;19942;-82
2022/07/05 12:33:23;;;;;;;;;;;;;;;19.04;84.87;101322.50;4980621;29;19921;-81
2022/07/05 12:35:50;;;;;;;;;;;;;;;19.30;84.33;101320.22;4979166;28;19905;-82
2022/07/05 12:38:19;;;;;;;;;;;;;;;19.27;81.71;101318.84;4950971;29;19914;-81
2022/07/05 12:43:20;;;;;;;;;;;;;;;19.33;82.13;101319.75;5634577;23;19924;-83
2022/07/05 12:46:05;;;;;;;;;;;;;;;19.44;82.07;101316.97;5001324;28;19946;-81
2022/07/05 12:48:34;;;;;;;;;;;;;;;19.65;80.76;101309.16;4983975;28;19913;-82
2022/07/05 12:51:02;;;;;;;;;;;;;;;19.66;80.09;101314.34;5001198;28;19966;-82
2022/07/05 12:58:58;;;;;;;;;;;;;;;19.07;80.66;101311.06;4962386;28;19913;-83
2022/07/05 13:01:29;;;;;;;;;;;;;;;19.10;82.37;101313.31;4962312;28;19923;-81
2022/07/05 13:03:59;;;;;;;;;;;;;;;18.91;83.83;101320.88;4961904;28;19915;-83
2022/07/05 13:06:43;;;;;;;;;;;;;;;19.00;84.12;101308.47;4961621;29;19943;-82
2022/07/05 13:09:10;;;;;;;;;;;;;;;19.07;84.80;101313.78;4997204;23;19914;-80
2022/07/05 13:14:11;;;;;;;;;;;;;;;19.03;83.55;101318.09;5337657;23;19921;-82
2022/07/05 13:16:36;;;;;;;;;;;;;;;19.02;83.46;101321.91;4944023;29;19966;-82
2022/07/05 13:19:09;;;;;;;;;;;;;;;19.12;82.90;101327.53;4944915;29;19927;-83
2022/07/05 13:21:34;;;;;;;;;;;;;;;19.17;81.60;101326.81;4944816;29;19906;-82
2022/07/05 13:24:00;;;;;;;;;;;;;;;19.35;80.14;101325.78;4941474;29;19976;-82
2022/07/05 13:26:25;;;;;;;;;;;;;;;19.59;79.37;101319.13;4942558;29;19919;-83
2022/07/05 13:28:51;;;;;;;;;;;;;;;19.68;78.74;101320.41;4942919;29;19911;-83
2022/07/05 13:33:50;;;;;;;;;;;;;;;19.37;78.46;101327.22;4958700;29;19950;-82
2022/07/05 13:36:15;;;;;;;;;;;;;;;19.37;79.34;101318.16;4944839;29;19907;-82
2022/07/05 13:38:40;;;;;;;;;;;;;;;19.15;80.46;101323.50;5086322;23;20393;-82
2022/07/05 13:41:06;;;;;;;;;;;;;;;19.12;82.04;101335.72;4919709;29;19980;-82
2022/07/05 13:43:31;;;;;;;;;;;;;;;19.36;80.98;101335.63;4907004;29;19947;-83
2022/07/05 13:56:17;;;;;;;;;;;;;;;19.73;75.97;101327.03;4990916;23;19932;-82
2022/07/05 13:58:43;;;;;;;;;;;;;;;19.77;75.27;101334.50;4963678;28;19907;-82
2022/07/05 14:01:09;;;;;;;;;;;;;;;19.81;75.82;101329.38;4979395;28;19922;-82
2022/07/05 14:03:34;;;;;;;;;;;;;;;19.88;76.01;101340.94;4980280;28;19930;-83
2022/07/05 14:06:00;;;;;;;;;;;;;;;19.82;75.14;101340.03;4962289;28;19919;-82
2022/07/05 14:08:25;;;;;;;;;;;;;;;19.44;75.85;101336.06;4979108;28;19954;-83
2022/07/05 14:10:55;;;;;;;;;;;;;;;19.39;76.15;101335.13;4962567;29;19970;-82
2022/07/05 14:13:21;;;;;;;;;;;;;;;19.19;77.09;101339.13;4962943;28;19929;-82
2022/07/05 14:15:48;;;;;;;;;;;;;;;19.05;77.91;101334.22;4979619;28;19986;-81
2022/07/05 14:18:14;;;;;;;;;;;;;;;18.95;79.34;101343.03;4979035;28;19978;-82
2022/07/05 14:20:42;;;;;;;;;;;;;;;18.98;79.88;101337.91;4961200;28;19929;-82
2022/07/05 14:23:13;;;;;;;;;;;;;;;19.23;75.73;101337.56;4981807;28;19907;-81
2022/07/05 14:25:39;;;;;;;;;;;;;;;19.42;74.73;101338.22;4962815;29;20151;-82